createdAt,value
2019-04-03T00:05:30.598Z,15.6
2019-04-03T00:11:25.597Z,19.48
2019-04-03T00:17:20.600Z,15.72
2019-04-03T00:23:15.693Z,19.54
2019-04-03T00:29:10.574Z,13.56
2019-04-03T00:35:05.609Z,14.16
2019-04-03T00:41:00.591Z,13.48
2019-04-03T00:46:56.133Z,14.2
2019-04-03T00:52:50.605Z,16.07
2019-04-03T00:58:45.592Z,15.83
2019-04-03T01:04:40.597Z,12.68
2019-04-03T01:10:35.630Z,10.6
2019-04-03T01:16:32.262Z,17.28
2019-04-03T01:22:25.624Z,16.59
2019-04-03T01:28:20.696Z,20.06
2019-04-03T01:34:17.370Z,18.71
2019-04-03T01:40:10.605Z,19.73
2019-04-03T01:46:05.800Z,19.07
2019-04-03T01:52:00.917Z,13.96
2019-04-03T01:57:55.715Z,13.96
2019-04-03T02:03:50.645Z,14.1
2019-04-03T02:09:46.534Z,20.03
2019-04-03T02:15:40.679Z,21.69
2019-04-03T02:21:35.645Z,19.46
2019-04-03T02:27:31.660Z,15.32
2019-04-03T02:33:28.126Z,11.8
2019-04-03T02:39:20.677Z,10.76
2019-04-03T02:45:15.673Z,8.66
2019-04-03T02:51:10.688Z,8.37
2019-04-03T02:57:05.758Z,10.83
2019-04-03T03:03:01.016Z,8.59
2019-04-03T03:08:55.699Z,7.8
2019-04-03T03:14:50.688Z,8.44
2019-04-03T03:20:45.695Z,9.67
2019-04-03T03:26:51.757Z,8.83
2019-04-03T03:32:36.815Z,8.26
2019-04-03T03:38:42.023Z,8.65
2019-04-03T03:44:25.814Z,10.47
2019-04-03T03:50:23.806Z,9.92
2019-04-03T03:56:15.708Z,7.94
2019-04-03T04:02:10.726Z,8.86
2019-04-03T04:08:08.920Z,8.96
2019-04-03T04:14:00.747Z,10.65
2019-04-03T04:19:55.735Z,9.51
2019-04-03T04:25:50.741Z,9.52
2019-04-03T04:31:48.022Z,9.73
2019-04-03T04:37:51.908Z,10.27
2019-04-03T04:43:35.730Z,7.04
2019-04-03T04:49:30.949Z,9.17
2019-04-03T04:55:30.504Z,10.3
2019-04-03T05:01:21.077Z,8.9
2019-04-03T05:07:16.876Z,10.33
2019-04-03T05:13:13.819Z,8.66
2019-04-03T05:19:09.932Z,13.73
2019-04-03T05:25:00.758Z,13.77
2019-04-03T05:30:55.756Z,14.42
2019-04-03T05:36:50.781Z,17.08
2019-04-03T05:42:45.794Z,14.44
2019-04-03T05:48:40.811Z,11.75
2019-04-03T05:54:38.354Z,14.29
2019-04-03T06:00:30.828Z,14.03
2019-04-03T06:24:10.828Z,14.93
2019-04-03T06:30:06.472Z,13.56
2019-04-03T06:41:55.805Z,13.96
2019-04-03T06:47:50.837Z,16.1
2019-04-03T06:53:45.943Z,17.12
2019-04-03T06:59:40.854Z,19.32
2019-04-03T07:05:35.829Z,18.81
2019-04-03T07:11:30.824Z,19.18
2019-04-03T07:17:25.847Z,21
2019-04-03T07:23:20.893Z,17.32
2019-04-03T07:29:16.597Z,15.63
2019-04-03T07:35:10.912Z,16.91
2019-04-03T07:41:05.861Z,24.37
2019-04-03T07:47:03.211Z,21.79
2019-04-03T07:52:55.845Z,16.16
2019-04-03T07:58:51.057Z,19.7
2019-04-03T08:04:45.872Z,21.43
2019-04-03T08:10:40.940Z,17.83
2019-04-03T08:46:11.027Z,18.67
2019-04-03T08:52:06.190Z,28.55
2019-04-03T08:58:01.083Z,30.33
2019-04-03T09:03:55.899Z,32.28
2019-04-03T09:09:56.420Z,29.89
2019-04-03T09:15:45.930Z,30.67
2019-04-03T09:21:41.034Z,30.73
2019-04-03T09:27:59.255Z,27.13
2019-04-03T09:33:30.932Z,28.13
2019-04-03T09:39:26.145Z,26.26
2019-04-03T09:45:20.981Z,26.59
2019-04-03T09:51:16.003Z,28.77
2019-04-03T09:57:11.123Z,29.24
2019-04-03T10:03:11.057Z,27.61
2019-04-03T10:21:01.604Z,28.8
2019-04-03T10:26:57.094Z,21.28
2019-04-03T10:32:45.036Z,16.97
2019-04-03T10:38:36.695Z,16.47
2019-04-03T10:44:54.070Z,15.76
2019-04-03T10:50:26.310Z,18.1
2019-04-03T10:56:24.794Z,15.28
2019-04-03T11:02:39.232Z,12.12
2019-04-03T11:08:13.137Z,32.27
2019-04-03T11:14:13.151Z,15.8
2019-04-03T11:20:02.286Z,9.82
2019-04-03T11:25:56.052Z,17.07
2019-04-03T11:31:51.085Z,15.76
2019-04-03T11:37:46.003Z,18.4
2019-04-03T11:43:41.055Z,16.66
2019-04-03T11:49:36.023Z,16.09
2019-04-03T12:01:32.528Z,24.9
2019-04-03T12:07:21.041Z,31.32
2019-04-03T12:13:20.780Z,34.03
2019-04-03T12:36:56.082Z,32.14
2019-04-03T12:36:56.153Z,20.34
2019-04-03T12:36:56.258Z,20.34
2019-04-03T12:54:42.752Z,20.7
2019-04-03T12:54:42.760Z,20.7
2019-04-03T12:54:42.810Z,20.7
2019-04-03T13:00:36.103Z,20.36
2019-04-03T13:06:42.460Z,16.9
2019-04-03T13:12:27.333Z,15.79
2019-04-03T13:18:21.071Z,16.14
2019-04-03T13:30:12.773Z,16.36
2019-04-03T13:36:06.250Z,16.71
2019-04-03T13:42:01.933Z,16.61
2019-04-03T13:47:56.489Z,17.92
2019-04-03T13:59:47.408Z,14.27
2019-04-03T13:59:47.425Z,14.27
2019-04-03T14:05:43.191Z,10.25
2019-04-03T14:11:36.475Z,11.11
2019-04-03T14:17:31.122Z,9.06
2019-04-03T14:23:39.839Z,8.35
2019-04-03T14:35:41.829Z,10.08
2019-04-03T14:35:41.830Z,11.17
2019-04-03T14:41:11.157Z,10.7
2019-04-03T14:47:06.166Z,7.92
2019-04-03T14:53:01.463Z,8.38
2019-04-03T14:58:57.973Z,11.18
2019-04-03T15:04:51.229Z,11.47
2019-04-03T15:10:46.213Z,10.12
2019-04-03T15:16:41.197Z,10.16
2019-04-03T15:22:36.285Z,8
2019-04-03T15:28:31.829Z,9.33
2019-04-03T15:34:27.609Z,8.18
2019-04-03T15:40:24.479Z,12.01
2019-04-03T15:46:16.573Z,12.32
2019-04-03T15:52:18.506Z,10.88
2019-04-03T15:58:06.183Z,11.7
2019-04-03T16:04:01.404Z,9.79
2019-04-03T16:09:56.194Z,11.25
2019-04-03T16:15:52.856Z,10.95
2019-04-03T16:21:47.578Z,10.34
2019-04-03T16:27:41.232Z,12
2019-04-03T16:33:36.887Z,9.88
2019-04-03T16:39:32.410Z,10.43
2019-04-03T16:51:21.441Z,16.62
2019-04-03T16:51:21.441Z,8.96
2019-04-03T16:57:18.011Z,27.79
2019-04-03T17:03:11.252Z,18.76
2019-04-03T17:09:06.660Z,23.01
2019-04-03T17:15:01.850Z,22.28
2019-04-03T17:20:56.988Z,18.54
2019-04-03T17:26:55.526Z,14.02
2019-04-03T17:38:46.664Z,19.9
2019-04-03T17:38:46.664Z,19.9
2019-04-03T17:44:38.283Z,32.86
2019-04-03T17:50:31.298Z,22
2019-04-03T17:56:26.309Z,23.13
2019-04-03T18:02:22.749Z,23.25
2019-04-03T18:08:25.781Z,26.04
2019-04-03T18:14:11.303Z,28.25
2019-04-03T18:20:13.459Z,22.76
2019-04-03T18:26:03.154Z,28.07
2019-04-03T18:38:02.462Z,27.27
2019-04-03T18:49:41.338Z,20.35
2019-04-03T18:49:41.392Z,15.69
2019-04-03T18:55:36.333Z,15.8
2019-04-03T19:01:32.469Z,18.46
2019-04-03T19:07:37.477Z,18.07
2019-04-03T19:13:21.327Z,21.8
2019-04-03T19:19:23.545Z,18.01
2019-04-03T19:37:12.519Z,18.94
2019-04-03T19:37:12.718Z,18.94
2019-04-03T19:42:56.374Z,18.25
2019-04-03T19:48:51.411Z,16.25
2019-04-03T19:54:46.565Z,13.51
2019-04-03T20:00:41.416Z,15.53
2019-04-03T20:06:36.385Z,16.41
2019-04-03T20:12:35.765Z,17.68
2019-04-03T20:18:26.654Z,18.95
2019-04-03T20:24:21.650Z,27.6
2019-04-03T20:30:16.609Z,19.33
2019-04-03T20:36:16.606Z,16.03
2019-04-03T20:42:07.976Z,20.72
2019-04-03T20:48:09.770Z,21.8
2019-04-03T20:53:56.449Z,24.09
2019-04-03T21:00:00.441Z,20.26
2019-04-03T21:05:51.149Z,17
2019-04-03T21:11:52.464Z,25.4
2019-04-03T21:17:42.929Z,23.73
2019-04-03T21:23:33.172Z,17.62
2019-04-03T21:29:30.204Z,17.95
2019-04-03T21:35:21.495Z,12.4
2019-04-03T21:41:16.427Z,12.31
2019-04-03T21:47:11.632Z,12.98
2019-04-03T21:53:09.157Z,11.77
2019-04-03T21:59:01.446Z,11.67
2019-04-03T22:04:56.458Z,11.89
2019-04-03T22:10:51.460Z,10.75
2019-04-03T22:16:55.191Z,9.72
2019-04-03T22:22:52.675Z,14.02
2019-04-03T22:28:36.510Z,13.37
2019-04-03T22:34:42.651Z,15.06
2019-04-03T22:40:26.492Z,10.62
2019-04-03T22:46:21.962Z,11.02
2019-04-03T22:52:16.482Z,13.82
2019-04-03T22:58:11.543Z,15.87
2019-04-03T23:04:06.490Z,14.93
2019-04-03T23:10:01.544Z,12.01
2019-04-03T23:15:58.885Z,12.85
2019-04-03T23:21:58.772Z,10.75
2019-04-03T23:27:46.514Z,11
2019-04-03T23:33:41.513Z,17.27
2019-04-03T23:39:37.457Z,15.03
2019-04-03T23:45:31.609Z,12.23
2019-04-03T23:51:27.894Z,17.97
2019-04-03T23:57:21.518Z,15.07
